Far Sitella — 9VHY8 — position and weather

sailwx.info

Track history (hours):
 
Tides and Currents Weather Stations Pressure Air Temp Water Temp Dewpoint Dewpoint Depression Visibility Wind Speed Wind Dir Waves Ship Positions

Far Sitella

Last reported at 2018-Jun-24 19:55 UTC. Time now 2018-Jun-25 02:14 UTC.
Position N 53°50' E 002°51'.

Length 82 m; draft 5.7 m.

Type: Cargo ship. MMSI: 566783000.

Date/timePositionNaut miles runAvg speedWind from/ knotsBaromVisibWave heightAir tempDewpointWater temp
2018-Jun-24 19:55N 53°50' E 002°51'0 0.0
2018-Jun-24 18:33N 53°50' E 002°51'0 0.1
2018-Jun-24 18:04N 53°50' E 002°51'0 0.4
2018-Jun-24 17:58N 53°50' E 002°51'1 0.1
2018-Jun-24 07:13N 53°51' E 002°52'0 0.1
2018-Jun-24 06:41N 53°51' E 002°52'1 0.7
2018-Jun-24 05:24N 53°50' E 002°53'0 0.2
2018-Jun-24 04:59N 53°50' E 002°53'1 0.1
2018-Jun-23 23:03N 53°51' E 002°52'0 0.0
2018-Jun-23 12:41N 53°51' E 002°52'0 0.0
2018-Jun-23 12:28N 53°51' E 002°52'0 0.0
2018-Jun-23 08:10N 53°50' E 002°52'0 0.0
2018-Jun-23 08:01N 53°50' E 002°52'0 0.4
2018-Jun-23 07:25N 53°50' E 002°52'1 0.2
2018-Jun-23 03:03N 53°50' E 002°53'0 0.3
2018-Jun-23 02:47N 53°50' E 002°53'59 8.6
2018-Jun-22 19:55N 52°53' E 002°24'5 9.6
2018-Jun-22 19:27N 52°48' E 002°23'4 9.3
2018-Jun-22 19:01N 52°45' E 002°21'4 8.5
2018-Jun-22 18:31N 52°41' E 002°16'5 8.9
2018-Jun-22 18:00N 52°39' E 002°10'4 8.9
2018-Jun-22 17:31N 52°37' E 002°04'5 8.6
2018-Jun-22 16:58N 52°34' E 001°57'4 8.4
2018-Jun-22 16:29N 52°32' E 001°51'4 8.7
2018-Jun-22 16:00N 52°34' E 001°46'1 2.7
2018-Jun-22 15:31N 52°35' E 001°44'1 1.4
2018-Jun-22 15:01N 52°35' E 001°44'0 0.0
2018-Jun-22 14:25N 52°35' E 001°44'0 0.0
2018-Jun-22 13:55N 52°35' E 001°44'0 0.0
2018-Jun-22 13:25N 52°35' E 001°44'0 0.0
2018-Jun-22 12:55N 52°35' E 001°44'0 0.0
2018-Jun-22 12:25N 52°35' E 001°44'0 0.0
2018-Jun-22 11:55N 52°35' E 001°44'0 0.0
2018-Jun-22 11:25N 52°35' E 001°44'0 0.0
2018-Jun-22 10:55N 52°35' E 001°44'0 0.0
2018-Jun-22 10:25N 52°35' E 001°44'0 0.0
2018-Jun-22 09:55N 52°35' E 001°44'0 0.0
2018-Jun-22 09:25N 52°35' E 001°44'0 0.0
2018-Jun-22 08:55N 52°35' E 001°44'0 0.0
2018-Jun-22 08:25N 52°35' E 001°44'0 0.0
2018-Jun-22 07:55N 52°35' E 001°44'0 0.0
2018-Jun-22 07:25N 52°35' E 001°44'0 0.0
2018-Jun-22 06:55N 52°35' E 001°44'0 0.0
2018-Jun-22 06:25N 52°35' E 001°44'0 0.0
2018-Jun-22 05:55N 52°35' E 001°44'0 0.0
2018-Jun-22 05:19N 52°35' E 001°44'0 0.0
2018-Jun-22 04:55N 52°35' E 001°44'0 0.0
2018-Jun-22 04:19N 52°35' E 001°44'0 0.0
2018-Jun-22 03:55N 52°35' E 001°44'0 0.0
2018-Jun-22 03:25N 52°35' E 001°44'0 0.0
2018-Jun-22 02:55N 52°35' E 001°44'0 0.0
2018-Jun-22 02:25N 52°35' E 001°44'0 0.0
2018-Jun-22 01:55N 52°35' E 001°44'0 0.0
2018-Jun-22 01:25N 52°35' E 001°44'0 0.0
2018-Jun-22 00:55N 52°35' E 001°44'0 0.0
2018-Jun-22 00:25N 52°35' E 001°44'0 0.0
2018-Jun-21 23:55N 52°35' E 001°44'0 0.0
2018-Jun-21 23:25N 52°35' E 001°44'0 0.0
2018-Jun-21 22:55N 52°35' E 001°44'0 0.0
2018-Jun-21 22:25N 52°35' E 001°44'0 0.0
2018-Jun-21 21:55N 52°35' E 001°44'0 0.0
2018-Jun-21 21:25N 52°35' E 001°44'0 0.0
2018-Jun-21 20:55N 52°35' E 001°44'0 0.0
2018-Jun-21 20:25N 52°35' E 001°44'0 0.0
2018-Jun-21 19:55N 52°35' E 001°44'0 0.0
2018-Jun-21 19:25N 52°35' E 001°44'0 0.0
2018-Jun-21 19:01N 52°35' E 001°44'0 0.0
2018-Jun-21 18:31N 52°35' E 001°44'0 0.1
2018-Jun-21 18:01N 52°36' E 001°44'0 0.0
2018-Jun-21 17:30N 52°36' E 001°44'0 0.0
2018-Jun-21 17:00N 52°36' E 001°44'0 0.0
2018-Jun-21 16:31N 52°36' E 001°44'0 0.0
2018-Jun-21 16:01N 52°36' E 001°44'0 0.0
2018-Jun-21 15:30N 52°36' E 001°44'0 0.0
2018-Jun-21 15:00N 52°36' E 001°44'0 0.0
2018-Jun-21 14:31N 52°36' E 001°44'0 0.0
2018-Jun-21 14:01N 52°36' E 001°44'0 0.0
2018-Jun-21 13:31N 52°36' E 001°44'0 0.0
2018-Jun-21 13:01N 52°36' E 001°44'0 0.0
2018-Jun-21 12:31N 52°36' E 001°44'1 2.5
2018-Jun-21 12:00N 52°34' E 001°44'1 2.0
2018-Jun-21 11:31N 52°35' E 001°46'0 0.9
2018-Jun-21 11:01N 52°35' E 001°47'6 7.4
2018-Jun-21 10:09N 52°34' E 001°57'2 8.7
2018-Jun-21 09:58N 52°35' E 001°59'4 8.4
2018-Jun-21 09:30N 52°37' E 002°05'4 8.3
2018-Jun-21 09:00N 52°39' E 002°10'  
2018-Jun-16 00:26N 53°50' E 002°51'0 0.2
2018-Jun-15 23:00N 53°50' E 002°52'1 0.4
2018-Jun-15 21:11N 53°51' E 002°52'0 0.0
2018-Jun-15 21:00N 53°51' E 002°52'0 0.0
2018-Jun-15 20:29N 53°51' E 002°52'1 0.1
2018-Jun-15 14:28N 53°51' E 002°51'  
Track history (hours):
 
Tides and Currents Weather Stations Pressure Air Temp Water Temp Dewpoint Dewpoint Depression Visibility Wind Speed Wind Dir Waves Ship Positions

Far Sitella

Last reported at 2018-Jun-24 19:55 UTC. Time now 2018-Jun-25 02:14 UTC.
Position N 53°50' E 002°51'.

Length 82 m; draft 5.7 m.

Type: Cargo ship. MMSI: 566783000.

Date/timePositionNaut miles runAvg speedWind from/ knotsBaromVisibWave heightAir tempDewpointWater temp
2018-Jun-24 19:55N 53°50' E 002°51'0 0.0
2018-Jun-24 18:33N 53°50' E 002°51'0 0.1
2018-Jun-24 18:04N 53°50' E 002°51'0 0.4
2018-Jun-24 17:58N 53°50' E 002°51'1 0.1
2018-Jun-24 07:13N 53°51' E 002°52'0 0.1
2018-Jun-24 06:41N 53°51' E 002°52'1 0.7
2018-Jun-24 05:24N 53°50' E 002°53'0 0.2
2018-Jun-24 04:59N 53°50' E 002°53'1 0.1
2018-Jun-23 23:03N 53°51' E 002°52'0 0.0
2018-Jun-23 12:41N 53°51' E 002°52'0 0.0
2018-Jun-23 12:28N 53°51' E 002°52'0 0.0
2018-Jun-23 08:10N 53°50' E 002°52'0 0.0
2018-Jun-23 08:01N 53°50' E 002°52'0 0.4
2018-Jun-23 07:25N 53°50' E 002°52'1 0.2
2018-Jun-23 03:03N 53°50' E 002°53'0 0.3
2018-Jun-23 02:47N 53°50' E 002°53'59 8.6
2018-Jun-22 19:55N 52°53' E 002°24'5 9.6
2018-Jun-22 19:27N 52°48' E 002°23'4 9.3
2018-Jun-22 19:01N 52°45' E 002°21'4 8.5
2018-Jun-22 18:31N 52°41' E 002°16'5 8.9
2018-Jun-22 18:00N 52°39' E 002°10'4 8.9
2018-Jun-22 17:31N 52°37' E 002°04'5 8.6
2018-Jun-22 16:58N 52°34' E 001°57'4 8.4
2018-Jun-22 16:29N 52°32' E 001°51'4 8.7
2018-Jun-22 16:00N 52°34' E 001°46'1 2.7
2018-Jun-22 15:31N 52°35' E 001°44'1 1.4
2018-Jun-22 15:01N 52°35' E 001°44'0 0.0
2018-Jun-22 14:25N 52°35' E 001°44'0 0.0
2018-Jun-22 13:55N 52°35' E 001°44'0 0.0
2018-Jun-22 13:25N 52°35' E 001°44'0 0.0
2018-Jun-22 12:55N 52°35' E 001°44'0 0.0
2018-Jun-22 12:25N 52°35' E 001°44'0 0.0
2018-Jun-22 11:55N 52°35' E 001°44'0 0.0
2018-Jun-22 11:25N 52°35' E 001°44'0 0.0
2018-Jun-22 10:55N 52°35' E 001°44'0 0.0
2018-Jun-22 10:25N 52°35' E 001°44'0 0.0
2018-Jun-22 09:55N 52°35' E 001°44'0 0.0
2018-Jun-22 09:25N 52°35' E 001°44'0 0.0
2018-Jun-22 08:55N 52°35' E 001°44'0 0.0
2018-Jun-22 08:25N 52°35' E 001°44'0 0.0
2018-Jun-22 07:55N 52°35' E 001°44'0 0.0
2018-Jun-22 07:25N 52°35' E 001°44'0 0.0
2018-Jun-22 06:55N 52°35' E 001°44'0 0.0
2018-Jun-22 06:25N 52°35' E 001°44'0 0.0
2018-Jun-22 05:55N 52°35' E 001°44'0 0.0
2018-Jun-22 05:19N 52°35' E 001°44'0 0.0
2018-Jun-22 04:55N 52°35' E 001°44'0 0.0
2018-Jun-22 04:19N 52°35' E 001°44'0 0.0
2018-Jun-22 03:55N 52°35' E 001°44'0 0.0
2018-Jun-22 03:25N 52°35' E 001°44'0 0.0
2018-Jun-22 02:55N 52°35' E 001°44'0 0.0
2018-Jun-22 02:25N 52°35' E 001°44'0 0.0
2018-Jun-22 01:55N 52°35' E 001°44'0 0.0
2018-Jun-22 01:25N 52°35' E 001°44'0 0.0
2018-Jun-22 00:55N 52°35' E 001°44'0 0.0
2018-Jun-22 00:25N 52°35' E 001°44'0 0.0
2018-Jun-21 23:55N 52°35' E 001°44'0 0.0
2018-Jun-21 23:25N 52°35' E 001°44'0 0.0
2018-Jun-21 22:55N 52°35' E 001°44'0 0.0
2018-Jun-21 22:25N 52°35' E 001°44'0 0.0
2018-Jun-21 21:55N 52°35' E 001°44'0 0.0
2018-Jun-21 21:25N 52°35' E 001°44'0 0.0
2018-Jun-21 20:55N 52°35' E 001°44'0 0.0
2018-Jun-21 20:25N 52°35' E 001°44'0 0.0
2018-Jun-21 19:55N 52°35' E 001°44'0 0.0
2018-Jun-21 19:25N 52°35' E 001°44'0 0.0
2018-Jun-21 19:01N 52°35' E 001°44'0 0.0
2018-Jun-21 18:31N 52°35' E 001°44'0 0.1
2018-Jun-21 18:01N 52°36' E 001°44'0 0.0
2018-Jun-21 17:30N 52°36' E 001°44'0 0.0
2018-Jun-21 17:00N 52°36' E 001°44'0 0.0
2018-Jun-21 16:31N 52°36' E 001°44'0 0.0
2018-Jun-21 16:01N 52°36' E 001°44'0 0.0
2018-Jun-21 15:30N 52°36' E 001°44'0 0.0
2018-Jun-21 15:00N 52°36' E 001°44'0 0.0
2018-Jun-21 14:31N 52°36' E 001°44'0 0.0
2018-Jun-21 14:01N 52°36' E 001°44'0 0.0
2018-Jun-21 13:31N 52°36' E 001°44'0 0.0
2018-Jun-21 13:01N 52°36' E 001°44'0 0.0
2018-Jun-21 12:31N 52°36' E 001°44'1 2.5
2018-Jun-21 12:00N 52°34' E 001°44'1 2.0
2018-Jun-21 11:31N 52°35' E 001°46'0 0.9
2018-Jun-21 11:01N 52°35' E 001°47'6 7.4
2018-Jun-21 10:09N 52°34' E 001°57'2 8.7
2018-Jun-21 09:58N 52°35' E 001°59'4 8.4
2018-Jun-21 09:30N 52°37' E 002°05'4 8.3
2018-Jun-21 09:00N 52°39' E 002°10'  
2018-Jun-16 00:26N 53°50' E 002°51'0 0.2
2018-Jun-15 23:00N 53°50' E 002°52'1 0.4
2018-Jun-15 21:11N 53°51' E 002°52'0 0.0
2018-Jun-15 21:00N 53°51' E 002°52'0 0.0
2018-Jun-15 20:29N 53°51' E 002°52'1 0.1
2018-Jun-15 14:28N 53°51' E 002°51'  

Dump ship's entire track history